< < Back
Terminal Aerodrome Forecast


Current Version              Previous Versions:   1  2  3  4  5  6  7  8  9  

Terminal Aerodrome Forecast

763
FTUS42 KTAE 280527
TAFABY
TAF
KABY 280527Z 2806/2906 00000KT P6SM SCT060 SCT150 SCT250
     FM281500 12005KT P6SM SCT050=



Latest METAR

718
SAUS70 KWBC 281800 RRB
MTRABY
METAR KABY 281753Z 10008G15KT 070V170 10SM SCT048 30/17 A3018 RMK AO2
SLP217 T03000167 10311 20217 58011


USA.gov is the U.S. government's official web portal to all federal, state and local government web resources and services.